Time;durP1;ratioP1;P1;durP2;ratioP2;P2;SDS_P1;SDS_P2;PMS_P1;PMS_P2;Temp;Humidity;BMP_temperature;BMP_pressure;BME280_temperature;BME280_humidity;BME280_pressure;Samples;Min_cycle;Max_cycle;Signal;HPM_P1;HPM_P2
2022/10/19 00:00:36;;;;;;;50.08;6.80;;;;;;;13.70;100.00;99170.22;5072658;28;20040;-94
2022/10/19 00:03:11;;;;;;;91.85;8.68;;;;;;;13.63;100.00;99156.19;5067519;28;20036;-94
2022/10/19 00:05:53;;;;;;;91.03;9.23;;;;;;;13.41;100.00;99146.72;5052331;28;20079;-94
2022/10/19 00:08:21;;;;;;;28.02;5.88;;;;;;;13.47;100.00;99145.94;5036373;28;20028;-94
2022/10/19 00:10:52;;;;;;;32.80;5.72;;;;;;;13.66;100.00;99167.16;5037028;28;20484;-95
2022/10/19 00:13:46;;;;;;;37.42;5.47;;;;;;;13.56;100.00;99142.16;5032476;28;20125;-94
2022/10/19 00:16:47;;;;;;;;;;;;;;;;;;;;;
2022/10/19 00:19:25;;;;;;;144.15;11.43;;;;;;;13.66;100.00;99135.53;5033749;28;20045;-96
2022/10/19 00:21:52;;;;;;;;;;;;;;;13.78;97.58;99161.34;5034050;28;20044;-94
2022/10/19 00:24:31;;;;;;;22.73;5.25;;;;;;;13.47;98.29;99132.78;5048874;28;19944;-94
2022/10/19 00:27:09;;;;;;;43.75;5.82;;;;;;;13.42;98.13;99159.69;5032130;28;20026;-94
2022/10/19 00:29:35;;;;;;;17.58;4.18;;;;;;;13.41;99.49;99138.81;5048716;28;20029;-94
2022/10/19 00:32:13;;;;;;;33.88;4.90;;;;;;;13.59;98.60;99170.75;5033298;28;20037;-94
2022/10/19 00:35:04;;;;;;;;;;;;;;;;;;;;;
2022/10/19 00:37:32;;;;;;;99.32;7.00;;;;;;;13.07;97.73;99161.41;5033899;28;20108;-94
2022/10/19 00:40:10;;;;;;;46.72;5.13;;;;;;;12.97;98.54;99153.03;5048934;28;20037;-95
2022/10/19 00:42:58;;;;;;;26.58;5.13;;;;;;;13.06;100.00;99162.41;5033259;28;20104;-94
2022/10/19 00:45:32;;;;;;;11.90;4.77;;;;;;;13.29;100.00;99183.31;5049417;28;20542;-95
2022/10/19 00:48:02;;;;;;;6.93;4.20;;;;;;;13.23;100.00;99161.16;5031938;28;20508;-94
2022/10/19 00:51:01;;;;;;;;;;;;;;;;;;;;;
2022/10/19 00:53:30;;;;;;;23.48;5.53;;;;;;;13.56;100.00;99193.06;5034080;28;20037;-95
2022/10/19 00:56:17;;;;;;;;;;;;;;;;;;;;;
2022/10/19 00:58:50;;;;;;;36.20;5.28;;;;;;;13.53;99.64;99166.25;5032926;28;20137;-95
2022/10/19 01:01:44;;;;;;;65.18;5.90;;;;;;;13.48;96.67;99174.72;5032321;28;20037;-95
2022/10/19 01:04:15;;;;;;;46.55;5.70;;;;;;;13.48;97.26;99169.47;5036787;28;20112;-95
2022/10/19 01:07:07;;;;;;;50.53;5.38;;;;;;;13.44;96.72;99172.69;5035138;28;20501;-95
2022/10/19 01:09:33;;;;;;;66.13;5.00;;;;;;;13.19;95.64;99148.53;5052348;28;20025;-95
2022/10/19 01:13:24;;;;;;;;;;;;;;;;;;;;;
2022/10/19 01:16:27;;;;;;;42.85;5.03;;;;;;;13.07;97.98;99167.50;5050705;28;20113;-95
2022/10/19 01:19:20;;;;;;;47.83;4.68;;;;;;;12.75;96.66;99173.25;5036408;28;20059;-94
2022/10/19 01:22:09;;;;;;;47.97;4.70;;;;;;;12.82;99.76;99174.13;5021677;28;20033;-95
2022/10/19 01:25:09;;;;;;;;;;;;;;;;;;;;;
2022/10/19 01:28:34;;;;;;;38.70;5.57;;;;;;;12.96;97.92;99181.19;5036418;28;20108;-95
2022/10/19 01:31:25;;;;;;;15.25;3.97;;;;;;;12.86;100.00;99149.06;5036343;28;20057;-96
2022/10/19 01:34:08;;;;;;;23.65;4.18;;;;;;;13.17;99.71;99187.44;5019284;28;20028;-94
2022/10/19 01:37:11;;;;;;;40.25;4.85;;;;;;;13.07;98.40;99161.41;5017513;28;20481;-95
2022/10/19 01:40:04;;;;;;;52.75;5.15;;;;;;;13.11;96.92;99175.84;5035083;28;20097;-95
2022/10/19 01:42:58;;;;;;;17.33;3.72;;;;;;;12.95;97.87;99162.91;5034929;28;20029;-94
2022/10/19 01:45:48;;;;;;;27.20;4.15;;;;;;;12.95;98.89;99153.19;5036495;28;20542;-94
2022/10/19 01:48:31;;;;;;;7.40;3.72;;;;;;;13.08;99.07;99157.78;5035919;28;20044;-95
2022/10/19 01:51:24;;;;;;;21.58;4.47;;;;;;;13.10;99.83;99146.03;5036195;28;20373;-95
2022/10/19 01:54:15;;;;;;;;;;;;;;;;;;;;;
2022/10/19 01:57:10;;;;;;;7.78;3.53;;;;;;;12.98;97.25;99125.69;5035583;28;20064;-95
2022/10/19 01:59:45;;;;;;;12.55;3.63;;;;;;;13.08;97.63;99145.44;5036062;28;20035;-95
2022/10/19 02:02:22;;;;;;;12.60;3.80;;;;;;;13.08;98.31;99129.63;5036051;28;20037;-95
2022/10/19 02:05:04;;;;;;;14.48;3.85;;;;;;;13.20;98.29;99126.47;5018268;28;20116;-95
2022/10/19 02:07:43;;;;;;;13.10;3.58;;;;;;;13.20;97.62;99123.84;5051269;28;20523;-95
2022/10/19 02:10:21;;;;;;;;;;;;;;;;;;;;;
2022/10/19 02:13:08;;;;;;;34.67;4.88;;;;;;;13.21;97.13;99125.50;5034623;28;20123;-95
2022/10/19 02:16:12;;;;;;;;;;;;;;;;;;;;;
2022/10/19 02:19:01;;;;;;;35.58;4.07;;;;;;;13.27;96.65;99136.09;5034778;28;20087;-95
2022/10/19 02:21:45;;;;;;;38.58;4.85;;;;;;;13.17;96.41;99109.22;5034595;28;20067;-94
2022/10/19 02:24:40;;;;;;;30.17;4.30;;;;;;;13.15;96.01;99113.06;5034346;28;20052;-94
2022/10/19 02:27:28;;;;;;;65.10;5.45;;;;;;;13.12;96.31;99114.25;5035088;28;20071;-95
2022/10/19 02:30:22;;;;;;;37.90;4.18;;;;;;;13.24;96.35;99114.56;5047770;28;20084;-94
2022/10/19 02:33:12;;;;;;;66.65;5.38;;;;;;;13.02;93.40;99121.69;5033952;28;20119;-95
2022/10/19 02:36:04;;;;;;;20.67;3.80;;;;;;;12.99;95.70;99119.41;5034036;28;20516;-95
2022/10/19 02:38:51;;;;;;;25.35;4.07;;;;;;;12.82;95.72;99116.22;5034508;28;20029;-95
2022/10/19 02:41:54;;;;;;;68.10;5.68;;;;;;;12.49;95.30;99086.97;5034851;28;20025;-95
2022/10/19 02:44:40;;;;;;;29.60;4.13;;;;;;;12.58;97.71;99084.00;5027970;28;20045;-94
2022/10/19 02:47:34;;;;;;;8.45;3.20;;;;;;;12.63;96.39;99080.00;5017236;28;20033;-95
2022/10/19 02:50:10;;;;;;;17.52;3.83;;;;;;;12.60;95.79;99104.91;5034456;28;20032;-95
2022/10/19 02:52:40;;;;;;;6.15;2.92;;;;;;;12.65;98.06;99099.06;5017596;28;20037;-95
2022/10/19 02:55:13;;;;;;;17.13;3.58;;;;;;;12.78;98.77;99117.63;5034080;28;20500;-95
2022/10/19 02:57:46;;;;;;;16.90;3.92;;;;;;;12.87;97.83;99111.19;5017695;28;20044;-95
2022/10/19 03:00:24;;;;;;;12.13;3.33;;;;;;;12.93;98.03;99110.44;5033043;28;20034;-95
2022/10/19 03:03:02;;;;;;;5.60;3.38;;;;;;;12.93;97.73;99091.19;5034395;28;20029;-95
2022/10/19 03:06:00;;;;;;;49.50;5.03;;;;;;;12.81;96.86;99089.09;5018269;28;20116;-95
2022/10/19 03:08:25;;;;;;;21.58;3.97;;;;;;;12.87;97.79;99095.41;5015671;28;20520;-95
2022/10/19 03:11:12;;;;;;;21.42;4.22;;;;;;;12.77;97.65;99069.41;5031168;28;20061;-95
2022/10/19 03:13:40;;;;;;;19.42;9.75;;;;;;;12.91;97.45;99096.66;5062354;28;20093;-95
2022/10/19 03:16:10;;;;;;;13.55;6.25;;;;;;;12.91;97.20;99088.78;5052153;28;20032;-94
2022/10/19 03:18:43;;;;;;;20.08;5.55;;;;;;;12.93;96.06;99097.28;5033907;28;20040;-94
2022/10/19 03:21:18;;;;;;;14.82;4.50;;;;;;;12.96;96.95;99107.44;5051188;28;20043;-94
2022/10/19 03:23:59;;;;;;;13.95;3.25;;;;;;;13.01;96.67;99104.22;5043570;28;20029;-95
2022/10/19 03:26:40;;;;;;;13.02;3.80;;;;;;;13.09;96.28;99117.28;5052949;28;20030;-94
2022/10/19 03:29:18;;;;;;;8.50;3.80;;;;;;;12.96;95.96;99096.91;5050435;28;20067;-94
2022/10/19 03:31:47;;;;;;;14.75;3.97;;;;;;;13.11;95.21;99104.72;5065841;28;20099;-93
2022/10/19 03:34:17;;;;;;;15.80;3.63;;;;;;;13.12;94.80;99106.34;5062359;28;20483;-95
2022/10/19 03:37:07;;;;;;;4.45;3.28;;;;;;;13.06;94.91;99094.75;5019385;28;20120;-94
2022/10/19 03:39:37;;;;;;;12.32;3.17;;;;;;;13.08;94.46;99094.56;5033408;28;20045;-94
2022/10/19 03:42:18;;;;;;;15.73;2.90;;;;;;;12.99;93.61;99080.72;5067009;28;20029;-94
2022/10/19 03:44:48;;;;;;;15.52;3.47;;;;;;;13.07;94.13;99093.78;5049894;28;20111;-94
2022/10/19 03:47:19;;;;;;;9.43;3.22;;;;;;;13.12;94.18;99111.59;5036423;28;20163;-94
2022/10/19 03:49:49;;;;;;;6.70;3.00;;;;;;;12.97;93.84;99088.00;5024649;28;20041;-94
2022/10/19 03:52:52;;;;;;;;;;;;;;;;;;;;;
2022/10/19 03:55:21;;;;;;;11.00;2.80;;;;;;;12.95;93.84;99090.00;5055848;28;20503;-94
2022/10/19 03:57:56;;;;;;;8.63;2.97;;;;;;;13.11;94.21;99109.97;5030097;28;20068;-94
2022/10/19 04:00:22;;;;;;;15.13;3.25;;;;;;;12.99;93.80;99098.34;5043259;28;20473;-93
2022/10/19 04:02:49;;;;;;;17.55;3.03;;;;;;;13.12;93.21;99122.97;5049367;28;20033;-94
2022/10/19 04:05:15;;;;;;;3.90;2.75;;;;;;;12.94;93.97;99095.47;5049023;28;20503;-94
2022/10/19 04:07:46;;;;;;;6.97;2.72;;;;;;;12.99;94.17;99096.53;5049642;28;20571;-93
2022/10/19 04:10:14;;;;;;;6.63;2.53;;;;;;;13.13;93.54;99119.34;5063688;28;20159;-94
2022/10/19 04:13:05;;;;;;;11.05;2.60;;;;;;;12.96;94.11;99091.66;5039651;28;20403;-94
2022/10/19 04:15:49;;;;;;;10.23;3.28;;;;;;;12.89;92.90;99084.69;5043080;28;20038;-93
2022/10/19 04:18:21;;;;;;;7.72;2.78;;;;;;;13.05;94.12;99108.94;5031055;28;20033;-94
2022/10/19 04:21:21;;;;;;;6.67;3.17;;;;;;;12.98;93.92;99099.34;5047492;28;20029;-94
2022/10/19 04:23:56;;;;;;;10.60;3.35;;;;;;;13.09;94.23;99102.28;5041404;28;20116;-93
2022/10/19 04:26:39;;;;;;;4.88;2.83;;;;;;;12.92;93.32;99079.84;5056764;28;20477;-94
2022/10/19 04:29:18;;;;;;;19.17;3.45;;;;;;;13.05;93.54;99090.50;5056833;28;20082;-95
2022/10/19 04:31:59;;;;;;;8.80;3.08;;;;;;;13.00;93.17;99087.63;5032681;28;20554;-94
2022/10/19 04:34:35;;;;;;;13.02;3.17;;;;;;;13.12;93.15;99107.16;5049853;28;20380;-94
2022/10/19 04:37:08;;;;;;;11.52;3.53;;;;;;;13.08;93.66;99116.47;5046630;28;20499;-94
2022/10/19 04:39:39;;;;;;;10.23;3.28;;;;;;;13.15;93.52;99120.97;5046341;28;20047;-94
2022/10/19 04:42:11;;;;;;;10.60;3.10;;;;;;;13.05;93.49;99089.69;5043169;28;20032;-93
2022/10/19 04:44:44;;;;;;;35.60;3.90;;;;;;;13.10;93.30;99097.81;5033017;28;20029;-94
2022/10/19 04:47:14;;;;;;;26.42;3.85;;;;;;;13.17;93.63;99103.94;5050046;28;20660;-93
2022/10/19 04:49:48;;;;;;;53.90;4.93;;;;;;;12.97;92.49;99089.81;5048754;28;20143;-94
2022/10/19 04:52:19;;;;;;;13.98;3.40;;;;;;;12.87;93.83;99079.63;5058748;28;20546;-94
2022/10/19 04:55:12;;;;;;;;;;;;;;;;;;;;;
2022/10/19 04:57:51;;;;;;;11.82;3.67;;;;;;;12.95;95.64;99094.44;5033894;28;20084;-95
2022/10/19 05:00:26;;;;;;;38.40;4.30;;;;;;;12.71;93.24;99074.59;5033627;28;20116;-95
2022/10/19 05:02:52;;;;;;;21.60;3.67;;;;;;;12.67;93.95;99083.91;5033131;28;20431;-93
2022/10/19 05:05:25;;;;;;;18.08;3.20;;;;;;;12.71;95.83;99082.50;5035019;28;20076;-94
2022/10/19 05:07:54;;;;;;;13.27;3.60;;;;;;;12.69;96.47;99074.81;5034201;28;20493;-95
2022/10/19 05:10:19;;;;;;;19.02;4.50;;;;;;;12.55;95.51;99088.84;5048026;28;20026;-95
2022/10/19 05:12:55;;;;;;;24.08;3.78;;;;;;;12.55;95.75;99094.13;5032618;28;20029;-93
2022/10/19 05:15:28;;;;;;;15.88;4.00;;;;;;;12.58;96.52;99089.28;5033435;28;20642;-95
2022/10/19 05:17:56;;;;;;;15.53;4.37;;;;;;;12.69;96.47;99095.03;5050412;28;20087;-95
2022/10/19 05:20:32;;;;;;;32.38;4.45;;;;;;;12.52;94.69;99076.88;5034340;28;20080;-94
2022/10/19 05:23:02;;;;;;;14.73;3.60;;;;;;;12.48;95.81;99072.19;5050366;28;20037;-94
2022/10/19 05:25:38;;;;;;;29.55;4.90;;;;;;;12.58;96.87;99089.28;5034732;28;20481;-96
2022/10/19 05:28:05;;;;;;;33.40;4.85;;;;;;;12.49;95.56;99072.00;5046382;28;20360;-94
2022/10/19 05:30:47;;;;;;;;;;;;;;;;;;;;;
2022/10/19 05:33:15;;;;;;;11.50;4.10;;;;;;;12.33;95.79;99077.50;5054276;28;20029;-95
2022/10/19 05:35:51;;;;;;;14.27;4.60;;;;;;;12.50;95.94;99099.13;5037939;28;20104;-95
2022/10/19 05:38:26;;;;;;;12.65;4.68;;;;;;;12.42;95.67;99079.00;5034513;28;20663;-95
2022/10/19 05:41:16;;;;;;;11.43;4.80;;;;;;;12.53;94.86;99094.31;5035206;28;20021;-95
2022/10/19 05:43:58;;;;;;;;;;;;;;;;;;;;;
2022/10/19 05:46:33;;;;;;;20.50;6.55;;;;;;;12.31;94.38;99076.88;5033090;28;20034;-94
2022/10/19 05:49:02;;;;;;;53.78;6.93;;;;;;;12.40;93.66;99096.78;5016827;28;20029;-94
2022/10/19 05:51:45;;;;;;;;;;;;;;;;;;;;;
2022/10/19 05:54:24;;;;;;;50.97;7.00;;;;;;;12.42;94.15;99110.59;5050782;28;20045;-95
2022/10/19 05:57:05;;;;;;;;;;;;;;;;;;;;;
2022/10/19 05:59:44;;;;;;;53.78;6.05;;;;;;;12.07;93.53;99109.59;5033532;28;20060;-94
2022/10/19 06:02:20;;;;;;;26.25;5.45;;;;;;;12.03;95.37;99103.06;5049858;28;20036;-94
2022/10/19 06:05:01;;;;;;;;;;;;;;;;;;;;;
2022/10/19 06:07:41;;;;;;;;;;;;;;;;;;;;;
2022/10/19 06:10:22;;;;;;;;;;;;;;;;;;;;;
2022/10/19 06:13:35;;;;;;;;;;;;;;;;;;;;;
2022/10/19 06:16:21;;;;;;;27.90;5.15;;;;;;;12.56;95.79;99116.78;5053786;28;20025;-96
2022/10/19 06:19:04;;;;;;;;;;;;;;;;;;;;;
2022/10/19 06:21:45;;;;;;;;;;;;;;;;;;;;;
2022/10/19 06:24:34;;;;;;;8.02;3.85;;;;;;;12.48;94.40;99096.69;5031358;28;20146;-95
2022/10/19 06:27:01;;;;;;;13.35;4.38;;;;;;;12.72;93.99;99121.00;5026657;28;20029;-96
2022/10/19 06:29:52;;;;;;;;;;;;;;;;;;;;;
2022/10/19 06:32:46;;;;;;;28.10;5.68;;;;;;;12.32;91.33;99126.66;4989044;28;20093;-95
2022/10/19 06:35:43;;;;;;;23.13;3.75;;;;;;;12.05;92.33;99128.19;4991307;28;20053;-94
2022/10/19 06:38:09;;;;;;;18.38;4.53;;;;;;;12.15;94.53;99130.50;5010320;28;20038;-94
2022/10/19 06:40:47;;;;;;;20.52;4.10;;;;;;;12.26;95.05;99127.41;5013145;28;20026;-94
2022/10/19 06:43:43;;;;;;;;;;;;;;;;;;;;;
2022/10/19 06:46:28;;;;;;;36.22;5.45;;;;;;;12.31;92.52;99134.75;5023928;28;20099;-94
2022/10/19 06:49:00;;;;;;;37.37;5.40;;;;;;;12.25;93.58;99117.06;5027163;28;20076;-94
2022/10/19 06:51:45;;;;;;;;;;;;;;;;;;;;;
2022/10/19 06:54:35;;;;;;;12.23;4.47;;;;;;;12.44;94.87;99128.81;5040060;28;20033;-93
2022/10/19 06:57:13;;;;;;;;;;;;;;;;;;;;;
2022/10/19 06:59:59;;;;;;;21.92;3.10;;;;;;;12.15;91.24;99129.69;5039922;28;20061;-95
2022/10/19 07:02:34;;;;;;;17.88;3.70;;;;;;;12.05;94.91;99114.19;5073684;28;20111;-95
2022/10/19 07:05:02;;;;;;;15.23;3.17;;;;;;;12.04;94.40;99120.44;5067918;28;20028;-95
2022/10/19 07:07:29;;;;;;;56.45;4.43;;;;;;;12.09;95.24;99125.16;5049352;28;20036;-96
2022/10/19 07:10:00;;;;;;;33.40;4.30;;;;;;;12.22;93.90;99138.47;5052806;28;20041;-95
2022/10/19 07:12:57;;;;;;;61.03;4.63;;;;;;;12.12;92.93;99138.78;5051854;28;20047;-94
2022/10/19 07:15:54;;;;;;;;;;;;;;;;;;;;;
2022/10/19 07:18:50;;;;;;;16.70;3.72;;;;;;;12.28;92.02;99148.25;5054377;28;20028;-94
2022/10/19 07:21:17;;;;;;;23.17;3.83;;;;;;;12.20;93.99;99143.91;5045851;28;20037;-95
2022/10/19 07:23:58;;;;;;;21.63;4.85;;;;;;;12.10;93.38;99159.16;5040095;28;21364;-95
2022/10/19 07:26:31;;;;;;;7.53;3.20;;;;;;;12.11;93.66;99159.97;5047508;28;20096;-95
2022/10/19 07:29:33;;;;;;;5.55;2.78;;;;;;;12.23;93.02;99163.78;5052736;28;20032;-95
2022/10/19 07:32:38;;;;;;;17.20;3.17;;;;;;;12.39;93.52;99163.56;5053262;28;20041;-95
2022/10/19 07:35:13;;;;;;;21.13;3.20;;;;;;;12.13;90.55;99142.22;5030771;28;20037;-95
2022/10/19 07:37:44;;;;;;;14.90;3.45;;;;;;;12.12;91.23;99148.47;5050739;28;20032;-94
2022/10/19 07:40:14;;;;;;;13.02;3.30;;;;;;;12.22;91.90;99162.13;5049736;28;20041;-93
2022/10/19 07:44:59;;;;;;;21.67;3.90;;;;;;;12.33;93.40;99148.50;5114984;27;20950;-92
2022/10/19 07:47:29;;;;;;;18.70;4.13;;;;;;;12.31;93.22;99140.81;5096063;28;20134;-92
2022/10/19 07:50:02;;;;;;;20.35;3.97;;;;;;;12.52;93.77;99153.19;5092949;28;20387;-93
2022/10/19 07:52:37;;;;;;;34.03;4.32;;;;;;;12.32;90.83;99147.72;5077163;28;20046;-94
2022/10/19 07:55:04;;;;;;;24.33;4.88;;;;;;;12.27;91.72;99165.84;5079879;28;20036;-93
2022/10/19 07:57:32;;;;;;;31.65;5.40;;;;;;;12.28;91.76;99170.09;5075044;28;20395;-94
2022/10/19 08:00:03;;;;;;;15.73;4.90;;;;;;;12.39;93.04;99153.03;5079862;28;20047;-93
2022/10/19 08:02:44;;;;;;;21.38;5.22;;;;;;;12.42;91.44;99163.22;5063678;28;20425;-92
2022/10/19 08:05:15;;;;;;;14.88;5.82;;;;;;;12.32;93.17;99158.22;5077784;28;20036;-93
2022/10/19 08:08:11;;;;;;;12.02;5.22;;;;;;;12.56;93.02;99186.03;5075997;28;20032;-92
2022/10/19 08:11:51;;;;;;;;;;;;;;;;;;;;;
2022/10/19 08:15:05;;;;;;;17.70;6.38;;;;;;;12.73;93.11;99177.91;5067467;28;20435;-93
2022/10/19 08:17:31;;;;;;;11.43;5.72;;;;;;;12.44;91.87;99168.28;5076080;28;20044;-93
2022/10/19 08:19:56;;;;;;;10.75;5.47;;;;;;;12.46;91.06;99179.41;5078387;28;20416;-93
2022/10/19 08:22:34;;;;;;;11.13;6.68;;;;;;;12.51;91.73;99172.59;5060815;28;20035;-92
2022/10/19 08:25:05;;;;;;;12.10;5.93;;;;;;;12.61;92.54;99177.59;5093274;28;20032;-93
2022/10/19 08:27:38;;;;;;;12.23;6.10;;;;;;;12.63;88.50;99167.66;5075738;28;20033;-93
2022/10/19 08:30:21;;;;;;;9.63;5.18;;;;;;;12.65;89.15;99178.81;5061233;28;20110;-94
2022/10/19 08:32:50;;;;;;;10.82;5.47;;;;;;;12.56;89.40;99164.97;5053229;28;20049;-92
2022/10/19 08:35:18;;;;;;;9.00;5.05;;;;;;;12.68;90.49;99173.19;5054101;28;20495;-93
2022/10/19 08:37:46;;;;;;;10.05;5.13;;;;;;;12.86;89.52;99170.13;5050432;28;20719;-92
2022/10/19 08:40:27;;;;;;;9.43;5.07;;;;;;;12.90;89.65;99166.13;5050912;28;20041;-92
2022/10/19 08:43:10;;;;;;;12.30;5.65;;;;;;;12.99;88.92;99178.16;5049499;28;20684;-93
2022/10/19 08:46:02;;;;;;;9.27;5.18;;;;;;;13.13;89.87;99156.22;5052655;28;20037;-93
2022/10/19 08:48:51;;;;;;;;;;;;;;;;;;;;;
2022/10/19 08:51:21;;;;;;;11.07;5.85;;;;;;;13.56;89.56;99165.88;5054086;28;20041;-92
2022/10/19 08:54:04;;;;;;;12.15;6.32;;;;;;;13.55;87.32;99149.22;5072018;28;20125;-92
2022/10/19 08:56:37;;;;;;;10.32;4.88;;;;;;;13.51;86.27;99148.00;5041398;28;20029;-92
2022/10/19 08:59:21;;;;;;;9.52;4.78;;;;;;;13.79;87.81;99173.50;5020229;28;20034;-92
2022/10/19 09:02:07;;;;;;;11.45;5.82;;;;;;;13.81;89.17;99163.59;5020769;28;20061;-92
2022/10/19 09:04:58;;;;;;;10.23;5.30;;;;;;;13.83;87.70;99169.50;5043211;28;20040;-93
2022/10/19 09:07:36;;;;;;;9.50;5.30;;;;;;;13.79;89.01;99153.22;5056021;28;20044;-91
2022/10/19 09:10:19;;;;;;;9.82;6.03;;;;;;;14.01;89.10;99177.69;5039253;28;20046;-91
2022/10/19 09:13:28;;;;;;;10.30;6.07;;;;;;;14.06;85.04;99175.28;5040070;28;20047;-92
2022/10/19 09:16:21;;;;;;;9.88;5.80;;;;;;;14.06;85.66;99164.75;5043624;28;20430;-91
2022/10/19 09:18:49;;;;;;;8.52;5.75;;;;;;;13.95;86.51;99175.03;5053211;28;20029;-90
2022/10/19 09:21:34;;;;;;;10.70;6.03;;;;;;;14.01;86.20;99176.88;5041827;28;20044;-92
2022/10/19 09:24:10;;;;;;;10.10;5.72;;;;;;;14.01;87.08;99174.25;5034466;28;20492;-92
2022/10/19 09:26:59;;;;;;;11.38;6.35;;;;;;;14.14;89.20;99174.31;5017894;28;20041;-91
2022/10/19 09:29:42;;;;;;;10.93;6.43;;;;;;;14.35;88.59;99186.59;5028068;28;20073;-92
2022/10/19 09:32:29;;;;;;;9.93;6.35;;;;;;;14.34;89.25;99174.41;5015164;28;20508;-89
2022/10/19 09:35:19;;;;;;;9.38;6.15;;;;;;;14.50;89.42;99168.78;5012637;28;20437;-90
2022/10/19 09:37:49;;;;;;;9.15;6.20;;;;;;;14.54;87.57;99179.78;5011675;28;20041;-90
2022/10/19 09:40:23;;;;;;;12.00;6.35;;;;;;;14.40;86.96;99168.34;5024448;28;20033;-91
2022/10/19 09:43:12;;;;;;;;;;;;;;;;;;;;;
2022/10/19 09:46:11;;;;;;;8.73;5.93;;;;;;;14.61;86.43;99191.97;5014908;28;20425;-90
2022/10/19 09:49:01;;;;;;;10.02;6.57;;;;;;;14.58;87.20;99179.19;5029070;28;20033;-91
2022/10/19 09:51:58;;;;;;;10.98;6.82;;;;;;;14.71;83.34;99176.59;5029410;28;20477;-90
2022/10/19 09:54:36;;;;;;;11.05;7.10;;;;;;;14.87;85.11;99179.84;5023413;28;20037;-90
2022/10/19 09:57:07;;;;;;;10.55;6.55;;;;;;;14.87;85.79;99180.69;5020967;28;20943;-90
2022/10/19 09:59:44;;;;;;;14.23;7.88;;;;;;;15.03;84.57;99182.13;5025662;28;20030;-90
2022/10/19 10:02:27;;;;;;;14.45;7.50;;;;;;;14.91;83.98;99160.75;5026772;28;20389;-89
2022/10/19 10:05:13;;;;;;;12.38;7.45;;;;;;;15.14;84.47;99176.22;5017142;28;20030;-89
2022/10/19 10:07:43;;;;;;;13.07;8.02;;;;;;;15.29;82.92;99172.56;5016719;28;20034;-90
2022/10/19 10:10:47;;;;;;;12.20;7.70;;;;;;;15.41;82.66;99178.88;5012713;28;20048;-90
2022/10/19 10:13:26;;;;;;;14.25;7.60;;;;;;;15.34;80.23;99170.94;5014848;28;20120;-90
2022/10/19 10:16:02;;;;;;;10.75;7.43;;;;;;;15.25;82.74;99157.13;5009597;28;20042;-90
2022/10/19 10:18:29;;;;;;;12.05;7.47;;;;;;;15.38;83.03;99166.88;5018823;28;20552;-90
2022/10/19 10:21:02;;;;;;;15.07;8.32;;;;;;;15.51;84.62;99166.06;5019370;28;20565;-90
2022/10/19 10:23:35;;;;;;;15.80;8.63;;;;;;;15.37;82.95;99148.59;5018670;28;20370;-90
2022/10/19 10:26:06;;;;;;;14.70;8.65;;;;;;;15.33;82.49;99145.53;5007101;28;20451;-90
2022/10/19 10:28:50;;;;;;;14.98;8.52;;;;;;;15.57;84.44;99159.13;5022773;28;20034;-91
2022/10/19 10:31:23;;;;;;;15.88;8.60;;;;;;;15.59;84.67;99135.94;5011595;28;20040;-91
2022/10/19 10:34:10;;;;;;;15.70;9.73;;;;;;;15.67;82.35;99139.22;5016929;28;20120;-90
2022/10/19 10:36:42;;;;;;;13.60;8.85;;;;;;;15.70;80.64;99130.84;5016691;28;20036;-90
2022/10/19 10:39:16;;;;;;;13.18;8.45;;;;;;;15.78;82.82;99125.38;5015730;28;20030;-90
2022/10/19 10:41:52;;;;;;;14.13;9.15;;;;;;;15.83;82.99;99129.19;5020049;28;20038;-90
2022/10/19 10:44:35;;;;;;;17.63;8.60;;;;;;;15.79;80.73;99136.75;5014921;28;20037;-90
2022/10/19 10:47:05;;;;;;;13.00;9.07;;;;;;;15.62;82.33;99115.22;5014974;28;20038;-91
2022/10/19 10:49:45;;;;;;;13.07;8.75;;;;;;;15.69;82.42;99121.31;5026464;28;20045;-91
2022/10/19 10:52:18;;;;;;;15.10;9.00;;;;;;;15.82;82.86;99135.50;5019286;28;20064;-91
2022/10/19 10:55:17;;;;;;;16.27;8.63;;;;;;;15.88;80.81;99134.69;5020692;28;20026;-91
2022/10/19 10:57:52;;;;;;;13.38;8.40;;;;;;;15.89;81.57;99131.00;5015050;28;20037;-91
2022/10/19 11:00:24;;;;;;;13.82;8.43;;;;;;;15.69;80.84;99102.78;5001749;28;20029;-91
2022/10/19 11:03:09;;;;;;;13.13;8.55;;;;;;;15.85;81.30;99125.34;5011737;28;20041;-91
2022/10/19 11:05:58;;;;;;;;;;;;;;;;;;;;;
2022/10/19 11:08:59;;;;;;;18.73;9.52;;;;;;;16.12;83.97;99123.41;5017211;28;20034;-90
2022/10/19 11:11:47;;;;;;;16.52;9.23;;;;;;;15.93;80.01;99111.06;5019993;28;20033;-90
2022/10/19 11:14:30;;;;;;;15.93;9.43;;;;;;;15.86;76.40;99112.91;5013618;28;20022;-90
2022/10/19 11:17:05;;;;;;;18.20;9.63;;;;;;;15.90;79.56;99116.78;5020479;28;20037;-91
2022/10/19 11:19:43;;;;;;;15.52;8.93;;;;;;;15.92;81.48;99102.31;5014692;28;20029;-91
2022/10/19 11:23:16;;;;;;;;;;;;;;;;;;;;;
2022/10/19 11:26:28;;;;;;;16.25;8.98;;;;;;;16.18;79.19;99104.03;4992373;28;20038;-90
2022/10/19 11:29:16;;;;;;;16.55;9.10;;;;;;;16.17;79.36;99081.22;5012122;28;20072;-90
2022/10/19 11:31:56;;;;;;;13.13;8.93;;;;;;;16.20;78.70;99080.81;5030574;28;20126;-91
2022/10/19 11:34:35;;;;;;;17.45;9.20;;;;;;;16.39;76.84;99097.63;5026964;28;20030;-91
2022/10/19 11:38:23;;;;;;;16.55;9.13;;;;;;;16.30;77.33;99091.75;5028457;28;20065;-91
2022/10/19 11:41:30;;;;;;;13.00;9.20;;;;;;;16.48;79.73;99079.63;4962015;28;20030;-90
2022/10/19 11:44:39;;;;;;;13.32;8.95;;;;;;;16.55;77.97;99077.75;5020300;28;20058;-90
2022/10/19 11:47:30;;;;;;;13.02;8.43;;;;;;;16.64;76.52;99065.06;5030216;28;20708;-90
2022/10/19 11:50:18;;;;;;;14.52;9.43;;;;;;;16.77;77.82;99078.25;5027119;28;20037;-91
2022/10/19 11:53:33;;;;;;;13.40;9.18;;;;;;;16.86;75.11;99079.63;5024748;28;20307;-91
2022/10/19 11:56:32;;;;;;;15.07;9.18;;;;;;;16.91;75.99;99071.00;5009323;28;20034;-91
2022/10/19 11:59:23;;;;;;;13.65;8.70;;;;;;;17.03;76.78;99069.25;5002182;28;20120;-92
2022/10/19 12:02:10;;;;;;;14.38;8.45;;;;;;;16.94;74.71;99058.13;5025885;28;20108;-92
2022/10/19 12:05:20;;;;;;;11.45;8.68;;;;;;;17.01;77.44;99050.13;5013195;28;20040;-91
2022/10/19 12:08:41;;;;;;;13.48;8.95;;;;;;;17.07;75.99;99065.16;5011113;28;20029;-93
2022/10/19 12:11:52;;;;;;;14.63;9.35;;;;;;;17.11;75.54;99047.78;5005177;28;20037;-93
2022/10/19 12:14:38;;;;;;;15.13;8.48;;;;;;;17.10;75.46;99043.53;5018151;28;20401;-92
2022/10/19 12:17:22;;;;;;;13.65;8.27;;;;;;;17.07;73.17;99041.31;5018304;28;20438;-92
2022/10/19 12:19:57;;;;;;;14.63;9.52;;;;;;;17.01;73.14;99035.03;5038341;28;20034;-92
2022/10/19 12:22:40;;;;;;;20.92;10.32;;;;;;;16.98;74.59;99029.38;5030168;28;20060;-92
2022/10/19 12:25:25;;;;;;;12.60;7.95;;;;;;;16.78;74.12;99030.34;5009120;28;20041;-92
2022/10/19 12:28:02;;;;;;;15.60;8.93;;;;;;;16.79;78.32;99016.09;5008828;28;20026;-93
2022/10/19 12:30:32;;;;;;;12.65;8.50;;;;;;;16.89;78.03;99031.47;5026214;28;20030;-93
2022/10/19 12:33:47;;;;;;;12.25;7.82;;;;;;;16.72;76.95;99028.56;5014498;28;20623;-92
2022/10/19 12:36:45;;;;;;;12.57;7.85;;;;;;;16.89;74.22;99023.53;5013927;28;20112;-92
2022/10/19 12:39:50;;;;;;;;;;;;;;;;;;;;;
2022/10/19 12:43:00;;;;;;;;;;;;;;;;;;;;;
2022/10/19 12:45:34;;;;;;;12.90;8.73;;;;;;;17.42;78.97;99009.75;5030163;28;20052;-93
2022/10/19 12:48:58;;;;;;;;;;;;;;;;;;;;;
2022/10/19 12:51:24;;;;;;;12.32;7.32;;;;;;;17.46;68.94;98996.84;5022384;28;20034;-93
2022/10/19 12:54:11;;;;;;;13.07;7.53;;;;;;;17.48;68.75;98984.19;5034034;28;20104;-93
2022/10/19 12:56:53;;;;;;;11.15;7.57;;;;;;;17.71;72.08;98971.03;5033194;28;20041;-94
2022/10/19 12:59:32;;;;;;;9.93;6.72;;;;;;;18.11;70.76;98992.56;5006897;28;20041;-94
2022/10/19 13:02:28;;;;;;;8.82;6.72;;;;;;;18.27;67.02;98990.28;5034105;28;20025;-93
2022/10/19 13:04:57;;;;;;;13.00;7.30;;;;;;;18.41;74.02;98965.97;5013998;28;20045;-94
2022/10/19 13:07:36;;;;;;;10.93;6.43;;;;;;;18.70;74.12;98980.19;5025821;28;20057;-95
2022/10/19 13:10:18;;;;;;;10.02;6.13;;;;;;;18.75;67.52;98955.59;4997653;28;20036;-94
2022/10/19 13:13:48;;;;;;;9.33;6.97;;;;;;;18.86;67.14;98962.75;5027111;28;20040;-93
2022/10/19 13:16:46;;;;;;;;;;;;;;;;;;;;;
2022/10/19 13:19:15;;;;;;;10.98;6.97;;;;;;;18.98;67.78;98963.56;5014081;28;20088;-95
2022/10/19 13:21:50;;;;;;;9.00;5.80;;;;;;;19.07;65.24;98957.88;5015130;28;20029;-94
2022/10/19 13:24:30;;;;;;;8.70;6.07;;;;;;;19.17;63.26;98958.09;5012616;28;20033;-93
2022/10/19 13:27:03;;;;;;;9.30;6.22;;;;;;;19.13;62.07;98957.78;5014623;28;20489;-93
2022/10/19 13:29:41;;;;;;;;;;;;;;;19.14;66.11;98969.22;5050506;28;20056;-94